Time;durP1;ratioP1;P1;durP2;ratioP2;P2;SDS_P1;SDS_P2;PMS_P1;PMS_P2;Temp;Humidity;BMP_temperature;BMP_pressure;BME280_temperature;BME280_humidity;BME280_pressure;Samples;Min_cycle;Max_cycle;Signal;HPM_P1;HPM_P2
2024/02/22 00:00:03;;;;;;;;;;;;;;;25.48;38.29;93657.63;4933408;29;7232;-41
2024/02/22 00:02:40;;;;;;;;;;;;;;;25.51;37.81;93651.06;4948767;28;7002;-40
2024/02/22 00:05:15;;;;;;;;;;;;;;;25.50;37.65;93655.84;4975540;28;7041;-40
2024/02/22 00:07:41;;;;;;;;;;;;;;;25.49;37.52;93657.09;4975368;28;9122;-40
2024/02/22 00:10:10;;;;;;;;;;;;;;;25.52;38.02;93661.56;4959574;28;6942;-41
2024/02/22 00:12:47;;;;;;;;;;;;;;;25.48;37.98;93655.63;4975637;28;8713;-39
2024/02/22 00:15:32;;;;;;;;;;;;;;;25.47;37.93;93651.38;4975299;28;7742;-41
2024/02/22 00:17:58;;;;;;;;;;;;;;;25.47;38.20;93643.09;4975219;28;7276;-41
2024/02/22 00:20:35;;;;;;;;;;;;;;;25.47;37.77;93634.84;4974063;28;8752;-41
2024/02/22 00:23:19;;;;;;;;;;;;;;;25.49;38.10;93626.81;4949069;28;7068;-40
2024/02/22 00:25:49;;;;;;;;;;;;;;;25.48;38.16;93610.81;4957468;28;8896;-40
2024/02/22 00:28:17;;;;;;;;;;;;;;;25.47;37.66;93609.34;4955664;28;7238;-40
2024/02/22 00:30:53;;;;;;;;;;;;;;;25.49;37.80;93606.81;4939925;28;7002;-40
2024/02/22 00:33:28;;;;;;;;;;;;;;;25.45;38.16;93598.84;5014294;28;9106;-41
2024/02/22 00:35:59;;;;;;;;;;;;;;;25.47;38.22;93596.31;5038231;28;7233;-40
2024/02/22 00:38:29;;;;;;;;;;;;;;;25.46;38.30;93594.09;5054152;28;7280;-40
2024/02/22 00:40:55;;;;;;;;;;;;;;;25.49;37.96;93596.50;5054047;28;7078;-41
2024/02/22 00:43:20;;;;;;;;;;;;;;;25.44;37.66;93589.13;5036194;28;9285;-40
2024/02/22 00:45:46;;;;;;;;;;;;;;;25.46;38.13;93586.56;5032684;28;6993;-40
2024/02/22 00:48:17;;;;;;;;;;;;;;;25.47;38.19;93582.53;5040135;28;6946;-40
2024/02/22 00:50:57;;;;;;;;;;;;;;;25.45;38.07;93573.34;5035078;28;7151;-40
2024/02/22 00:53:27;;;;;;;;;;;;;;;25.47;38.40;93571.53;5038654;28;6953;-40
2024/02/22 00:55:57;;;;;;;;;;;;;;;25.48;37.52;93573.03;5025443;28;9145;-40
2024/02/22 00:58:29;;;;;;;;;;;;;;;25.45;37.37;93568.56;5054201;28;8923;-41
2024/02/22 01:00:56;;;;;;;;;;;;;;;25.43;37.79;93546.31;5054426;28;9406;-40
2024/02/22 01:03:27;;;;;;;;;;;;;;;25.45;37.57;93549.28;5036907;28;9346;-40
2024/02/22 01:05:53;;;;;;;;;;;;;;;25.41;38.60;93537.84;5053864;28;7268;-40
2024/02/22 01:08:19;;;;;;;;;;;;;;;25.42;38.61;93545.59;5054944;28;7737;-40
2024/02/22 01:10:45;;;;;;;;;;;;;;;25.41;38.35;93541.34;5037794;28;6993;-40
2024/02/22 01:13:11;;;;;;;;;;;;;;;25.43;37.93;93544.31;5055315;28;8873;-40
2024/02/22 01:15:39;;;;;;;;;;;;;;;25.42;37.92;93540.06;5036763;28;7229;-40
2024/02/22 01:18:25;;;;;;;;;;;;;;;25.44;38.57;93536.81;5054114;28;7891;-40
2024/02/22 01:20:51;;;;;;;;;;;;;;;25.43;38.08;93524.31;5053911;28;8637;-39
2024/02/22 01:23:18;;;;;;;;;;;;;;;25.39;38.32;93524.59;5053973;28;8798;-40
2024/02/22 01:26:05;;;;;;;;;;;;;;;25.40;38.01;93523.31;5033896;28;7349;-40
2024/02/22 01:28:31;;;;;;;;;;;;;;;25.39;37.88;93508.09;5025454;28;7228;-41
2024/02/22 01:30:57;;;;;;;;;;;;;;;25.40;38.04;93517.09;5034759;28;7251;-40
2024/02/22 01:33:23;;;;;;;;;;;;;;;25.41;38.13;93508.28;5035243;28;7009;-57
2024/02/22 01:35:50;;;;;;;;;;;;;;;25.39;38.04;93519.09;5053062;28;7221;-57
2024/02/22 01:38:25;;;;;;;;;;;;;;;25.38;38.42;93512.09;5036497;28;7252;-57
2024/02/22 01:40:51;;;;;;;;;;;;;;;25.39;37.48;93505.34;5037253;28;7005;-57
2024/02/22 01:43:35;;;;;;;;;;;;;;;25.37;38.26;93512.63;5037319;28;7834;-57
2024/02/22 01:46:02;;;;;;;;;;;;;;;25.37;38.47;93496.88;5042780;28;8976;-57
2024/02/22 01:48:34;;;;;;;;;;;;;;;25.35;38.50;93490.41;5034945;28;7002;-57
2024/02/22 01:51:01;;;;;;;;;;;;;;;25.37;38.19;93490.63;5035092;28;9083;-57
2024/02/22 01:53:30;;;;;;;;;;;;;;;25.36;37.66;93487.13;5031231;28;6976;-57
2024/02/22 01:56:19;;;;;;;;;;;;;;;25.37;38.36;93482.38;5044480;28;8682;-57
2024/02/22 01:58:49;;;;;;;;;;;;;;;25.35;38.15;93477.41;5017001;28;7258;-57
2024/02/22 02:01:19;;;;;;;;;;;;;;;25.37;37.73;93477.59;5033438;28;9198;-57
2024/02/22 02:04:16;;;;;;;;;;;;;;;25.38;38.63;93478.34;5037022;28;8756;-57
2024/02/22 02:06:45;;;;;;;;;;;;;;;25.34;37.74;93475.16;5004120;28;7207;-57
2024/02/22 02:09:13;;;;;;;;;;;;;;;25.35;38.41;93482.16;4993431;28;7143;-57
2024/02/22 02:11:41;;;;;;;;;;;;;;;25.34;38.30;93478.66;4996225;28;9146;-57
2024/02/22 02:14:07;;;;;;;;;;;;;;;25.34;37.93;93455.88;4980298;28;7279;-57
2024/02/22 02:16:46;;;;;;;;;;;;;;;25.35;38.63;93455.38;4995662;28;9259;-57
2024/02/22 02:19:43;;;;;;;;;;;;;;;25.35;38.53;93444.38;4996199;28;7074;-57
2024/02/22 02:26:04;;;;;;;;;;;;;;;25.32;37.64;93425.41;4973133;28;9067;-57
2024/02/22 02:28:44;;;;;;;;;;;;;;;25.31;38.26;93421.19;4973352;28;8456;-57
2024/02/22 02:31:32;;;;;;;;;;;;;;;25.31;38.61;93424.69;4973494;28;9086;-57
2024/02/22 02:34:11;;;;;;;;;;;;;;;25.33;37.91;93418.63;4973230;28;7076;-57
2024/02/22 02:37:06;;;;;;;;;;;;;;;25.32;37.96;93428.16;4972881;28;9456;-57
2024/02/22 02:40:04;;;;;;;;;;;;;;;25.32;37.90;93428.91;4907558;29;7254;-57
2024/02/22 02:42:55;;;;;;;;;;;;;;;25.33;37.66;93413.13;4900966;29;9453;-57
2024/02/22 02:45:36;;;;;;;;;;;;;;;25.33;38.59;93413.88;4915848;29;7168;-40
2024/02/22 02:48:38;;;;;;;;;;;;;;;25.34;38.71;93392.56;4946269;29;7375;-39
2024/02/22 02:51:14;;;;;;;;;;;;;;;25.32;38.56;93395.88;4917676;29;7011;-39
2024/02/22 02:54:05;;;;;;;;;;;;;;;25.34;38.40;93393.31;4933499;29;9064;-39
2024/02/22 02:56:40;;;;;;;;;;;;;;;25.35;37.67;93399.56;4934863;29;7641;-41
2024/02/22 02:59:16;;;;;;;;;;;;;;;25.33;38.25;93399.38;4927470;29;9378;-39
2024/02/22 03:02:34;;;;;;;;;;;;;;;25.34;38.68;93385.06;4940936;28;6999;-40
2024/02/22 03:05:26;;;;;;;;;;;;;;;25.34;38.62;93381.56;4915892;29;7292;-39
2024/02/22 03:07:53;;;;;;;;;;;;;;;25.33;37.65;93380.09;4899529;29;7319;-40
2024/02/22 03:10:19;;;;;;;;;;;;;;;25.32;38.27;93376.59;4899863;29;7204;-39
2024/02/22 03:12:46;;;;;;;;;;;;;;;25.34;38.60;93378.81;4899544;29;7228;-39
2024/02/22 03:15:13;;;;;;;;;;;;;;;25.35;38.07;93372.81;4914073;28;6995;-40
2024/02/22 03:17:57;;;;;;;;;;;;;;;25.36;38.25;93368.75;4991152;28;7220;-39
2024/02/22 03:20:35;;;;;;;;;;;;;;;25.36;37.56;93365.25;4957374;28;6988;-39
2024/02/22 03:23:12;;;;;;;;;;;;;;;25.36;38.33;93371.50;4976504;28;8746;-39
2024/02/22 03:25:44;;;;;;;;;;;;;;;25.36;38.26;93357.75;4976290;28;8299;-39
2024/02/22 03:29:00;;;;;;;;;;;;;;;25.37;37.63;93359.25;4976394;28;8770;-39
2024/02/22 03:31:25;;;;;;;;;;;;;;;25.35;38.29;93353.53;4918578;29;7964;-40
2024/02/22 03:34:11;;;;;;;;;;;;;;;25.35;38.22;93350.78;4918954;29;7286;-38
2024/02/22 03:36:41;;;;;;;;;;;;;;;25.35;38.26;93361.03;4918793;29;8847;-39
2024/02/22 03:39:15;;;;;;;;;;;;;;;25.35;38.22;93350.03;4902944;29;7090;-38
2024/02/22 03:41:41;;;;;;;;;;;;;;;25.35;38.36;93345.28;4956964;28;9082;-39
2024/02/22 03:44:07;;;;;;;;;;;;;;;25.37;37.90;93353.00;4957850;28;8262;-39
2024/02/22 03:47:01;;;;;;;;;;;;;;;25.35;38.71;93356.28;4975510;28;7287;-38
2024/02/22 03:49:56;;;;;;;;;;;;;;;25.35;37.84;93352.78;4959718;28;8757;-39
2024/02/22 03:52:41;;;;;;;;;;;;;;;25.34;38.56;93351.28;4954271;28;7406;-40
2024/02/22 03:55:22;;;;;;;;;;;;;;;25.34;37.88;93354.78;4924836;29;7219;-56
2024/02/22 03:57:49;;;;;;;;;;;;;;;25.35;38.15;93347.28;4937758;29;9068;-55
2024/02/22 04:00:17;;;;;;;;;;;;;;;25.33;38.05;93350.56;4921607;29;8841;-56
2024/02/22 04:02:46;;;;;;;;;;;;;;;25.35;38.64;93352.78;4917014;29;8019;-56
2024/02/22 04:05:16;;;;;;;;;;;;;;;25.32;38.46;93351.84;4933554;28;9160;-56
2024/02/22 04:07:42;;;;;;;;;;;;;;;25.34;38.28;93354.03;4950112;28;6981;-56
2024/02/22 04:10:09;;;;;;;;;;;;;;;25.31;38.13;93350.38;4977393;28;9024;-56
2024/02/22 04:12:35;;;;;;;;;;;;;;;25.32;38.24;93348.34;4994889;28;7579;-56
2024/02/22 04:15:02;;;;;;;;;;;;;;;25.33;38.63;93347.06;4978557;28;7849;-55
2024/02/22 04:18:24;;;;;;;;;;;;;;;25.32;38.72;93334.56;4994305;28;9158;-55
2024/02/22 04:20:50;;;;;;;;;;;;;;;25.31;38.13;93339.34;4940177;28;9133;-56
2024/02/22 04:23:18;;;;;;;;;;;;;;;25.32;37.88;93349.06;4952953;28;7223;-56
2024/02/22 04:25:59;;;;;;;;;;;;;;;25.31;38.10;93344.13;4974524;28;7215;-56
2024/02/22 04:28:37;;;;;;;;;;;;;;;25.29;38.71;93343.91;4988890;28;7329;-56
2024/02/22 04:31:38;;;;;;;;;;;;;;;25.33;37.75;93338.81;5014220;28;9103;-56
2024/02/22 04:34:19;;;;;;;;;;;;;;;25.33;38.43;93341.56;4936321;28;7048;-56
2024/02/22 04:37:32;;;;;;;;;;;;;;;25.32;38.79;93334.56;4956019;28;7203;-56
2024/02/22 04:40:12;;;;;;;;;;;;;;;25.29;38.82;93322.63;4955261;28;7276;-55
2024/02/22 04:42:58;;;;;;;;;;;;;;;25.31;38.70;93319.34;4939495;28;7097;-56
2024/02/22 04:45:34;;;;;;;;;;;;;;;25.31;38.30;93324.84;4955546;28;7348;-56
2024/02/22 04:48:10;;;;;;;;;;;;;;;25.29;38.87;93321.91;4955045;28;7396;-56
2024/02/22 04:50:45;;;;;;;;;;;;;;;25.31;38.34;93324.84;4955306;28;8502;-56
2024/02/22 04:53:19;;;;;;;;;;;;;;;25.30;38.38;93326.13;4936582;29;7262;-56
2024/02/22 04:55:56;;;;;;;;;;;;;;;25.28;38.10;93318.41;4964743;28;7159;-56
2024/02/22 04:58:42;;;;;;;;;;;;;;;25.30;38.21;93315.84;4958927;28;8676;-56
2024/02/22 05:01:18;;;;;;;;;;;;;;;25.31;38.34;93311.09;4974424;28;7582;-56
2024/02/22 05:04:15;;;;;;;;;;;;;;;25.32;37.89;93307.06;4974612;28;7221;-37
2024/02/22 05:06:42;;;;;;;;;;;;;;;25.30;38.50;93296.59;4938186;28;7015;-37
2024/02/22 05:09:13;;;;;;;;;;;;;;;25.32;38.49;93290.53;4942668;28;7058;-37
2024/02/22 05:11:48;;;;;;;;;;;;;;;25.30;38.67;93290.34;4958656;28;9041;-37
2024/02/22 05:14:15;;;;;;;;;;;;;;;25.31;38.79;93287.06;4954827;28;8181;-37
2024/02/22 05:17:16;;;;;;;;;;;;;;;25.32;38.01;93285.03;4954856;28;9704;-37
2024/02/22 05:20:27;;;;;;;;;;;;;;;25.31;38.82;93283.56;4860573;29;9470;-38
2024/02/22 05:23:05;;;;;;;;;;;;;;;25.31;38.41;93276.06;4823646;29;7601;-37
2024/02/22 05:25:39;;;;;;;;;;;;;;;25.31;38.49;93272.56;4808730;29;7697;-37
2024/02/22 05:28:08;;;;;;;;;;;;;;;25.31;38.15;93265.06;4808658;29;7294;-37
2024/02/22 05:30:34;;;;;;;;;;;;;;;25.32;37.64;93268.50;4835392;29;7008;-37
2024/02/22 05:33:00;;;;;;;;;;;;;;;25.32;38.54;93263.75;4824728;29;7244;-37
2024/02/22 05:35:27;;;;;;;;;;;;;;;25.34;38.36;93271.47;4822455;29;9023;-37
2024/02/22 05:38:04;;;;;;;;;;;;;;;25.31;38.33;93267.81;4826154;29;9334;-37
2024/02/22 05:40:50;;;;;;;;;;;;;;;25.33;38.57;93259.00;4826917;29;7641;-37
2024/02/22 05:43:24;;;;;;;;;;;;;;;25.32;37.83;93263.00;4837132;29;7137;-37
2024/02/22 05:46:06;;;;;;;;;;;;;;;25.32;38.29;93246.50;4858856;29;7299;-37
2024/02/22 05:48:32;;;;;;;;;;;;;;;25.29;38.25;93248.31;4841126;29;8708;-37
2024/02/22 05:50:58;;;;;;;;;;;;;;;25.31;37.82;93251.28;4855761;29;7323;-38
2024/02/22 05:53:25;;;;;;;;;;;;;;;25.31;37.85;93253.28;4858105;29;7704;-37
2024/02/22 05:56:08;;;;;;;;;;;;;;;25.30;38.14;93244.28;4932154;28;8915;-38
2024/02/22 05:58:36;;;;;;;;;;;;;;;25.31;38.26;93245.03;4960129;28;7657;-37
2024/02/22 06:01:04;;;;;;;;;;;;;;;25.31;38.85;93242.28;5053402;28;9321;-37
2024/02/22 06:03:33;;;;;;;;;;;;;;;25.32;38.67;93243.75;5054166;28;6998;-37
2024/02/22 06:06:00;;;;;;;;;;;;;;;25.32;38.39;93241.00;5052791;28;6987;-37
2024/02/22 06:08:28;;;;;;;;;;;;;;;25.29;38.57;93242.09;5036301;28;7634;-37
2024/02/22 06:10:54;;;;;;;;;;;;;;;25.31;38.12;93242.28;5053063;28;7015;-37
2024/02/22 06:13:20;;;;;;;;;;;;;;;25.30;37.86;93240.78;5036714;28;7330;-38
2024/02/22 06:15:47;;;;;;;;;;;;;;;25.31;37.93;93242.28;5052552;28;7520;-38
2024/02/22 06:18:22;;;;;;;;;;;;;;;25.32;38.78;93246.50;5037226;28;7496;-37
2024/02/22 06:20:51;;;;;;;;;;;;;;;25.31;37.83;93239.53;5052610;28;7751;-38
2024/02/22 06:23:18;;;;;;;;;;;;;;;25.29;38.06;93233.81;5049652;28;8771;-37
2024/02/22 06:25:45;;;;;;;;;;;;;;;25.31;37.80;93229.28;5035376;28;8742;-37
2024/02/22 06:28:11;;;;;;;;;;;;;;;25.29;38.25;93220.78;5034589;28;7227;-38
2024/02/22 06:30:37;;;;;;;;;;;;;;;25.32;38.68;93227.97;5034813;28;7237;-38
2024/02/22 06:33:04;;;;;;;;;;;;;;;25.32;38.04;93218.97;5031112;28;8960;-38
2024/02/22 06:35:30;;;;;;;;;;;;;;;25.31;38.24;93218.25;5047406;28;6989;-37
2024/02/22 06:37:56;;;;;;;;;;;;;;;25.32;38.23;93210.72;5052077;28;7427;-38
2024/02/22 06:40:48;;;;;;;;;;;;;;;25.32;38.45;93219.72;5053814;28;7303;-37
2024/02/22 06:43:17;;;;;;;;;;;;;;;25.30;38.90;93221.53;5053103;28;6976;-38
2024/02/22 06:45:57;;;;;;;;;;;;;;;25.31;38.00;93214.75;5053974;28;7128;-37
2024/02/22 06:48:35;;;;;;;;;;;;;;;25.30;38.50;93194.00;5019934;28;9221;-38
2024/02/22 06:51:29;;;;;;;;;;;;;;;25.32;37.76;93192.19;5033108;28;7387;-37
2024/02/22 06:54:08;;;;;;;;;;;;;;;25.33;38.49;93198.44;4992503;28;8423;-37
2024/02/22 06:56:35;;;;;;;;;;;;;;;25.31;37.98;93195.50;4978801;28;9202;-37
2024/02/22 06:59:01;;;;;;;;;;;;;;;25.32;38.64;93174.94;4996353;28;9106;-37
2024/02/22 07:01:43;;;;;;;;;;;;;;;25.32;38.17;93180.44;4996455;28;6998;-37
2024/02/22 07:04:28;;;;;;;;;;;;;;;25.32;38.76;93169.44;4996422;28;7954;-37
2024/02/22 07:06:54;;;;;;;;;;;;;;;25.32;38.18;93169.44;4978346;28;7166;-37
2024/02/22 07:09:20;;;;;;;;;;;;;;;25.31;38.42;93167.97;4978403;28;7241;-38
2024/02/22 07:11:45;;;;;;;;;;;;;;;25.32;38.81;93169.44;4979360;28;7002;-38
2024/02/22 07:14:11;;;;;;;;;;;;;;;25.30;37.91;93166.47;4994036;28;8764;-56
2024/02/22 07:16:37;;;;;;;;;;;;;;;25.31;37.78;93159.72;4978229;28;9062;-56
2024/02/22 07:19:14;;;;;;;;;;;;;;;25.34;38.21;93164.13;4995249;28;7106;-56
2024/02/22 07:22:17;;;;;;;;;;;;;;;25.32;38.42;93166.69;4995510;28;8800;-56
2024/02/22 07:24:44;;;;;;;;;;;;;;;25.33;38.53;93157.16;4957361;28;7148;-56
2024/02/22 07:27:10;;;;;;;;;;;;;;;25.32;37.83;93147.41;4947049;28;7118;-56
2024/02/22 07:29:45;;;;;;;;;;;;;;;25.31;37.89;93145.97;4956832;28;7242;-56
2024/02/22 07:32:13;;;;;;;;;;;;;;;25.31;38.20;93146.69;4976420;28;7130;-56
2024/02/22 07:34:51;;;;;;;;;;;;;;;25.29;38.32;93171.25;4972117;28;6990;-56
2024/02/22 07:37:20;;;;;;;;;;;;;;;25.32;38.79;93172.19;4973903;28;9039;-56
2024/02/22 07:39:56;;;;;;;;;;;;;;;25.32;38.37;93163.94;4984618;28;7296;-56
2024/02/22 07:42:22;;;;;;;;;;;;;;;25.32;38.29;93166.69;4995718;28;8700;-56
2024/02/22 07:44:51;;;;;;;;;;;;;;;25.32;38.42;93155.69;4995348;28;8895;-55
2024/02/22 07:47:18;;;;;;;;;;;;;;;25.32;38.77;93152.91;4993548;28;6929;-56
2024/02/22 07:49:44;;;;;;;;;;;;;;;25.32;38.74;93163.94;4982370;28;6974;-56
2024/02/22 07:52:10;;;;;;;;;;;;;;;25.31;38.37;93156.97;4981697;28;7232;-56
2024/02/22 07:54:47;;;;;;;;;;;;;;;25.29;38.29;93143.00;4985568;28;7318;-56
2024/02/22 07:57:14;;;;;;;;;;;;;;;25.31;37.79;93151.47;4976526;28;7186;-56
2024/02/22 07:59:41;;;;;;;;;;;;;;;25.32;38.41;93150.16;5037268;28;7271;-56
2024/02/22 08:02:09;;;;;;;;;;;;;;;25.27;38.42;93145.56;5053971;28;7270;-56
2024/02/22 08:04:35;;;;;;;;;;;;;;;25.32;38.47;93145.41;5033872;28;7312;-56
2024/02/22 08:07:05;;;;;;;;;;;;;;;25.31;38.23;93137.69;5027553;28;6989;-56
2024/02/22 08:09:31;;;;;;;;;;;;;;;25.33;38.67;93140.66;5046043;28;9232;-56
2024/02/22 08:11:59;;;;;;;;;;;;;;;25.30;38.60;93134.19;5053582;28;9224;-56
2024/02/22 08:14:26;;;;;;;;;;;;;;;25.32;38.73;93141.91;5052615;28;6997;-56
2024/02/22 08:16:52;;;;;;;;;;;;;;;25.27;38.56;93135.28;5049299;28;7151;-56
2024/02/22 08:19:32;;;;;;;;;;;;;;;25.31;38.72;93137.69;5044625;28;7073;-56
2024/02/22 08:22:09;;;;;;;;;;;;;;;25.32;38.86;93142.66;5050307;28;7028;-56
2024/02/22 08:24:40;;;;;;;;;;;;;;;25.30;38.14;93117.69;5018708;28;7063;-40
2024/02/22 08:27:10;;;;;;;;;;;;;;;25.32;37.89;93123.41;5018779;28;7055;-40
2024/02/22 08:29:36;;;;;;;;;;;;;;;25.30;38.23;93109.44;5044138;28;7080;-41
2024/02/22 08:32:05;;;;;;;;;;;;;;;25.32;38.30;93117.88;5034950;28;10144;-40
2024/02/22 08:34:31;;;;;;;;;;;;;;;25.34;38.59;93122.84;5018460;28;7085;-40
2024/02/22 08:37:15;;;;;;;;;;;;;;;25.32;38.60;93133.66;5047295;28;7520;-40
2024/02/22 08:39:41;;;;;;;;;;;;;;;25.34;38.70;93134.59;5055226;28;8750;-39
2024/02/22 08:42:08;;;;;;;;;;;;;;;25.34;37.87;93128.34;5038441;28;9262;-40
2024/02/22 08:44:36;;;;;;;;;;;;;;;25.34;38.90;93129.09;5055066;28;7978;-40
2024/02/22 08:47:03;;;;;;;;;;;;;;;25.34;37.95;93122.84;5048214;28;8776;-40
2024/02/22 08:49:43;;;;;;;;;;;;;;;25.34;38.05;93109.81;5034647;28;7067;-39
2024/02/22 08:52:12;;;;;;;;;;;;;;;25.35;38.64;93110.56;5035778;28;6999;-40
2024/02/22 08:54:47;;;;;;;;;;;;;;;25.34;38.22;93122.84;5018264;28;8847;-40
2024/02/22 08:57:27;;;;;;;;;;;;;;;25.35;37.97;93116.06;5018188;28;7292;-40
2024/02/22 08:59:58;;;;;;;;;;;;;;;25.33;38.39;93099.38;5017884;28;7253;-40
2024/02/22 09:02:26;;;;;;;;;;;;;;;25.35;37.83;93105.06;5030701;28;6982;-40
2024/02/22 09:04:52;;;;;;;;;;;;;;;25.31;37.83;93094.41;5052649;28;9033;-40
2024/02/22 09:07:20;;;;;;;;;;;;;;;25.32;38.38;93100.63;5035694;28;7232;-40
2024/02/22 09:09:50;;;;;;;;;;;;;;;25.35;38.56;93097.56;5053685;28;7241;-39
2024/02/22 09:12:17;;;;;;;;;;;;;;;25.34;37.84;93090.56;5037675;28;8750;-39
2024/02/22 09:14:49;;;;;;;;;;;;;;;25.35;38.63;93085.81;5037194;28;7077;-39
2024/02/22 09:17:18;;;;;;;;;;;;;;;25.35;37.79;93072.78;5020808;28;9525;-39
2024/02/22 09:19:45;;;;;;;;;;;;;;;25.35;38.17;93072.78;5052338;28;7171;-39
2024/02/22 09:22:12;;;;;;;;;;;;;;;25.34;37.79;93052.03;5053984;28;7210;-39
2024/02/22 09:24:56;;;;;;;;;;;;;;;25.35;37.90;93055.53;5054364;28;9542;-39
2024/02/22 09:27:46;;;;;;;;;;;;;;;25.35;37.88;93061.78;5053783;28;7278;-40
2024/02/22 09:30:12;;;;;;;;;;;;;;;25.36;38.51;93065.25;5053479;28;6971;-40
2024/02/22 09:32:39;;;;;;;;;;;;;;;25.35;38.68;93058.28;5053053;28;7366;-40
2024/02/22 09:35:06;;;;;;;;;;;;;;;25.36;37.81;93060.47;5052870;28;7244;-40
2024/02/22 09:37:32;;;;;;;;;;;;;;;25.37;37.81;93050.22;5035542;28;7043;-40
2024/02/22 09:40:02;;;;;;;;;;;;;;;25.36;38.66;93048.72;5053531;28;7240;-40
2024/02/22 09:42:35;;;;;;;;;;;;;;;25.37;38.74;93050.22;5054045;28;8791;-40
2024/02/22 09:45:05;;;;;;;;;;;;;;;25.34;38.78;93048.53;5037558;28;7111;-40
2024/02/22 09:47:33;;;;;;;;;;;;;;;25.36;38.25;93037.72;5053529;28;8476;-40
2024/02/22 09:50:00;;;;;;;;;;;;;;;25.36;37.84;93018.44;5053882;28;9048;-40
2024/02/22 09:52:26;;;;;;;;;;;;;;;25.35;38.34;92992.97;5035730;28;7146;-41
2024/02/22 09:54:52;;;;;;;;;;;;;;;25.36;38.04;92993.69;5029988;28;8922;-39
2024/02/22 09:57:23;;;;;;;;;;;;;;;25.37;38.50;92997.91;5051252;28;8211;-40
2024/02/22 09:59:51;;;;;;;;;;;;;;;25.38;38.73;92993.91;5053502;28;9168;-41
2024/02/22 10:02:51;;;;;;;;;;;;;;;25.38;38.08;92985.66;5052979;28;8454;-40
2024/02/22 10:05:34;;;;;;;;;;;;;;;25.37;37.88;92978.66;4965259;28;9463;-40
2024/02/22 10:08:11;;;;;;;;;;;;;;;25.35;38.27;92959.94;4967682;28;9551;-40
2024/02/22 10:10:37;;;;;;;;;;;;;;;25.35;38.07;92968.19;4973916;28;9046;-40
2024/02/22 10:13:04;;;;;;;;;;;;;;;25.36;38.29;92966.91;4973453;28;9098;-41
2024/02/22 10:15:33;;;;;;;;;;;;;;;25.36;38.35;92969.66;4956970;28;7238;-40
2024/02/22 10:18:28;;;;;;;;;;;;;;;25.38;38.22;92958.13;4956833;28;6978;-40
2024/02/22 10:21:26;;;;;;;;;;;;;;;25.39;38.65;92943.06;4957431;28;7002;-41
2024/02/22 10:23:59;;;;;;;;;;;;;;;25.38;38.26;92938.84;4915968;29;7106;-40
2024/02/22 10:26:59;;;;;;;;;;;;;;;25.39;37.77;92937.56;4915855;29;8425;-40
2024/02/22 10:29:58;;;;;;;;;;;;;;;25.38;38.78;92936.09;4916072;29;7455;-39
2024/02/22 10:32:40;;;;;;;;;;;;;;;25.36;38.49;92933.13;4861137;29;7162;-40
2024/02/22 10:35:45;;;;;;;;;;;;;;;25.37;38.78;92924.34;4863230;29;7275;-39
2024/02/22 10:38:42;;;;;;;;;;;;;;;25.39;38.44;92929.31;4863624;29;9218;-40
2024/02/22 10:41:19;;;;;;;;;;;;;;;25.39;38.48;92921.78;4874122;29;6990;-40
2024/02/22 10:44:03;;;;;;;;;;;;;;;25.39;38.83;92921.03;4882420;29;9463;-37
2024/02/22 10:46:43;;;;;;;;;;;;;;;25.38;38.01;92920.31;4881571;29;7665;-37
2024/02/22 10:49:27;;;;;;;;;;;;;;;25.39;38.74;92926.56;4881778;29;7224;-37
2024/02/22 10:52:19;;;;;;;;;;;;;;;25.41;38.71;92912.97;4882174;29;7475;-37
2024/02/22 10:55:09;;;;;;;;;;;;;;;25.41;38.59;92921.22;4878078;29;9108;-37
2024/02/22 10:57:37;;;;;;;;;;;;;;;25.40;38.40;92919.78;4863357;29;7002;-37
2024/02/22 11:00:15;;;;;;;;;;;;;;;25.39;37.95;92910.03;4894509;29;7079;-37
2024/02/22 11:02:44;;;;;;;;;;;;;;;25.39;38.64;92905.28;4935455;28;7068;-37
2024/02/22 11:05:15;;;;;;;;;;;;;;;25.40;38.19;92901.22;4941637;28;7910;-37
2024/02/22 11:07:49;;;;;;;;;;;;;;;25.41;38.57;92901.97;4960396;28;8071;-37
2024/02/22 11:10:15;;;;;;;;;;;;;;;25.37;38.57;92891.31;5043000;28;8010;-37
2024/02/22 11:12:45;;;;;;;;;;;;;;;25.40;37.84;92895.00;5038520;28;9049;-37
2024/02/22 11:15:13;;;;;;;;;;;;;;;25.39;38.21;92885.25;5057456;28;7135;-37
2024/02/22 11:18:22;;;;;;;;;;;;;;;25.41;38.08;92888.19;5027652;28;7223;-38
2024/02/22 11:21:11;;;;;;;;;;;;;;;25.39;37.93;92866.75;5036198;28;8770;-38
2024/02/22 11:23:42;;;;;;;;;;;;;;;25.40;38.76;92867.47;5019595;28;7287;-37
2024/02/22 11:26:42;;;;;;;;;;;;;;;25.40;38.05;92856.47;5037341;28;7279;-37
2024/02/22 11:29:36;;;;;;;;;;;;;;;25.39;38.41;92841.22;4999914;28;7230;-37
2024/02/22 11:32:13;;;;;;;;;;;;;;;25.38;37.95;92837.72;5011536;28;7947;-37
2024/02/22 11:35:05;;;;;;;;;;;;;;;25.41;38.82;92819.41;4979396;28;7102;-37
2024/02/22 11:41:18;;;;;;;;;;;;;;;25.39;38.01;92805.44;4937624;29;7276;-37
2024/02/22 11:44:22;;;;;;;;;;;;;;;25.40;37.97;92806.94;4921733;29;9172;-37
2024/02/22 11:47:00;;;;;;;;;;;;;;;25.40;38.52;92793.16;4880632;29;7262;-37
2024/02/22 11:49:57;;;;;;;;;;;;;;;25.39;37.85;92780.69;4880911;29;7244;-37
2024/02/22 11:52:37;;;;;;;;;;;;;;;25.40;38.64;92779.41;4862042;29;7097;-37
2024/02/22 11:55:08;;;;;;;;;;;;;;;25.39;38.21;92759.41;4862223;29;7256;-37
2024/02/22 11:57:53;;;;;;;;;;;;;;;25.39;38.80;92742.88;4862138;29;7528;-37
2024/02/22 12:00:23;;;;;;;;;;;;;;;25.36;38.67;92729.47;4868232;29;9527;-38
2024/02/22 12:03:15;;;;;;;;;;;;;;;25.39;38.65;92720.13;4844161;29;7066;-38
2024/02/22 12:05:51;;;;;;;;;;;;;;;25.38;38.44;92708.38;4843763;29;9107;-37
2024/02/22 12:08:17;;;;;;;;;;;;;;;25.39;38.13;92696.09;4838109;29;7352;-38
2024/02/22 12:10:43;;;;;;;;;;;;;;;25.38;38.21;92674.63;4859449;29;8792;-38
2024/02/22 12:13:08;;;;;;;;;;;;;;;25.39;38.63;92681.59;4846472;29;6983;-38
2024/02/22 12:15:40;;;;;;;;;;;;;;;25.40;38.44;92664.53;4843220;29;7577;-37
2024/02/22 12:18:19;;;;;;;;;;;;;;;25.40;38.35;92650.06;4893626;29;9247;-38
2024/02/22 12:20:55;;;;;;;;;;;;;;;25.40;38.28;92639.75;4922616;28;7003;-38
2024/02/22 12:23:34;;;;;;;;;;;;;;;25.40;37.76;92625.28;4939583;28;8750;-38
2024/02/22 12:26:06;;;;;;;;;;;;;;;25.42;37.95;92617.22;4940019;28;7249;-37
2024/02/22 12:28:35;;;;;;;;;;;;;;;25.41;38.66;92605.44;4975727;28;7267;-37
2024/02/22 12:31:05;;;;;;;;;;;;;;;25.41;38.25;92596.47;5040293;28;8733;-38
2024/02/22 12:33:33;;;;;;;;;;;;;;;25.42;37.77;92603.47;5044106;28;8783;-38
2024/02/22 12:36:03;;;;;;;;;;;;;;;25.45;38.10;92587.88;5053889;28;7179;-37
2024/02/22 12:38:44;;;;;;;;;;;;;;;25.43;38.39;92586.41;5034406;28;8837;-38
2024/02/22 12:41:11;;;;;;;;;;;;;;;25.42;38.58;92578.69;5037884;28;6955;-37
2024/02/22 12:43:39;;;;;;;;;;;;;;;25.42;38.76;92578.69;5047957;28;7424;-38
2024/02/22 12:46:07;;;;;;;;;;;;;;;25.45;37.85;92587.88;5053048;28;7222;-38
2024/02/22 12:48:34;;;;;;;;;;;;;;;25.45;38.62;92590.63;5039314;28;9568;-38
2024/02/22 12:51:02;;;;;;;;;;;;;;;25.44;38.64;92581.63;5043905;28;7420;-38
2024/02/22 12:53:34;;;;;;;;;;;;;;;25.45;38.45;92582.38;5055554;28;9056;-38
2024/02/22 12:56:16;;;;;;;;;;;;;;;25.44;37.75;92576.13;5034494;28;9219;-38
2024/02/22 12:58:43;;;;;;;;;;;;;;;25.45;38.29;92576.88;5034745;28;9237;-38
2024/02/22 13:01:14;;;;;;;;;;;;;;;25.46;38.85;92589.31;5018533;28;7833;-38
2024/02/22 13:03:41;;;;;;;;;;;;;;;25.42;38.46;92584.91;5021484;28;7418;-57
2024/02/22 13:06:11;;;;;;;;;;;;;;;25.44;38.40;92587.13;5053706;28;7261;-57
2024/02/22 13:08:40;;;;;;;;;;;;;;;25.45;38.37;92593.38;5055522;28;6986;-57
2024/02/22 13:11:06;;;;;;;;;;;;;;;25.42;38.59;92584.91;5054190;28;7017;-57
2024/02/22 13:13:34;;;;;;;;;;;;;;;25.42;38.61;92582.16;5054298;28;7050;-57
2024/02/22 13:16:01;;;;;;;;;;;;;;;25.45;37.73;92576.88;5053550;28;6998;-57
2024/02/22 13:18:29;;;;;;;;;;;;;;;25.44;37.63;92570.63;5054060;28;7087;-57
2024/02/22 13:21:09;;;;;;;;;;;;;;;25.45;38.17;92568.59;5037529;28;7216;-57
2024/02/22 13:23:40;;;;;;;;;;;;;;;25.44;37.83;92559.59;5054272;28;8702;-57
2024/02/22 13:26:24;;;;;;;;;;;;;;;25.45;37.53;92574.81;5055439;28;9049;-57
2024/02/22 13:29:19;;;;;;;;;;;;;;;25.45;38.54;92561.06;5054876;28;9029;-57
2024/02/22 13:31:46;;;;;;;;;;;;;;;25.43;38.49;92564.38;4977932;28;8803;-57
2024/02/22 13:34:12;;;;;;;;;;;;;;;25.44;38.49;92559.59;4971268;28;7150;-57
2024/02/22 13:36:39;;;;;;;;;;;;;;;25.39;38.39;92555.72;4991389;28;7170;-57
2024/02/22 13:39:07;;;;;;;;;;;;;;;25.41;37.77;92555.16;4993334;28;6975;-57
2024/02/22 13:42:02;;;;;;;;;;;;;;;25.43;38.61;92563.63;4993641;28;9175;-57
2024/02/22 13:44:57;;;;;;;;;;;;;;;25.43;37.62;92563.63;4993350;28;7396;-57